sensor_id;sensor_type;location;lat;lon;timestamp;temperature;humidity
40758;DHT22;26462;47.384;19.218;2023-07-29T00:00:13;21.90;99.90
40758;DHT22;26462;47.384;19.218;2023-07-29T00:02:41;21.90;99.90
40758;DHT22;26462;47.384;19.218;2023-07-29T00:05:09;21.80;99.90
40758;DHT22;26462;47.384;19.218;2023-07-29T00:07:38;21.80;99.90
40758;DHT22;26462;47.384;19.218;2023-07-29T00:10:06;21.80;99.90
40758;DHT22;26462;47.384;19.218;2023-07-29T00:12:34;21.80;99.90
40758;DHT22;26462;47.384;19.218;2023-07-29T00:15:01;21.70;99.90
40758;DHT22;26462;47.384;19.218;2023-07-29T00:17:31;21.70;99.90
40758;DHT22;26462;47.384;19.218;2023-07-29T00:19:59;21.70;99.90
40758;DHT22;26462;47.384;19.218;2023-07-29T00:22:30;21.70;99.90
40758;DHT22;26462;47.384;19.218;2023-07-29T00:24:57;21.70;99.90
40758;DHT22;26462;47.384;19.218;2023-07-29T00:27:26;21.70;99.90
40758;DHT22;26462;47.384;19.218;2023-07-29T00:29:54;21.60;99.90
40758;DHT22;26462;47.384;19.218;2023-07-29T00:32:21;21.60;99.90
40758;DHT22;26462;47.384;19.218;2023-07-29T00:34:49;21.70;99.90
40758;DHT22;26462;47.384;19.218;2023-07-29T00:37:16;21.60;99.90
40758;DHT22;26462;47.384;19.218;2023-07-29T00:39:45;21.60;99.90
40758;DHT22;26462;47.384;19.218;2023-07-29T00:42:12;21.60;99.90
40758;DHT22;26462;47.384;19.218;2023-07-29T00:44:41;21.60;99.90
40758;DHT22;26462;47.384;19.218;2023-07-29T00:47:11;21.50;99.90
40758;DHT22;26462;47.384;19.218;2023-07-29T00:49:43;21.50;99.90
40758;DHT22;26462;47.384;19.218;2023-07-29T00:52:12;21.50;99.90
40758;DHT22;26462;47.384;19.218;2023-07-29T00:54:44;21.40;99.90
40758;DHT22;26462;47.384;19.218;2023-07-29T00:57:14;21.40;99.90
40758;DHT22;26462;47.384;19.218;2023-07-29T00:59:42;21.40;99.90
40758;DHT22;26462;47.384;19.218;2023-07-29T01:02:14;21.40;99.90
40758;DHT22;26462;47.384;19.218;2023-07-29T01:04:42;21.30;99.90
40758;DHT22;26462;47.384;19.218;2023-07-29T01:07:30;21.40;99.90
40758;DHT22;26462;47.384;19.218;2023-07-29T01:10:07;21.30;99.90
40758;DHT22;26462;47.384;19.218;2023-07-29T01:15:28;21.20;99.90
40758;DHT22;26462;47.384;19.218;2023-07-29T01:18:04;21.20;99.90
40758;DHT22;26462;47.384;19.218;2023-07-29T01:20:38;21.20;99.90
40758;DHT22;26462;47.384;19.218;2023-07-29T01:23:14;21.20;99.90
40758;DHT22;26462;47.384;19.218;2023-07-29T01:25:43;21.20;99.90
40758;DHT22;26462;47.384;19.218;2023-07-29T01:28:16;21.20;99.90
40758;DHT22;26462;47.384;19.218;2023-07-29T01:30:45;21.10;99.90
40758;DHT22;26462;47.384;19.218;2023-07-29T01:36:39;21.10;99.90
40758;DHT22;26462;47.384;19.218;2023-07-29T01:39:28;21.00;99.90
40758;DHT22;26462;47.384;19.218;2023-07-29T01:42:21;21.00;99.90
40758;DHT22;26462;47.384;19.218;2023-07-29T01:44:51;21.00;99.90
40758;DHT22;26462;47.384;19.218;2023-07-29T01:47:18;20.90;99.90
40758;DHT22;26462;47.384;19.218;2023-07-29T01:49:46;20.60;99.90
40758;DHT22;26462;47.384;19.218;2023-07-29T01:52:16;20.80;99.90
40758;DHT22;26462;47.384;19.218;2023-07-29T01:54:47;20.80;99.90
40758;DHT22;26462;47.384;19.218;2023-07-29T01:57:14;20.80;99.90
40758;DHT22;26462;47.384;19.218;2023-07-29T01:59:46;20.70;99.90
40758;DHT22;26462;47.384;19.218;2023-07-29T02:02:13;20.80;99.90
40758;DHT22;26462;47.384;19.218;2023-07-29T02:04:45;20.80;99.90
40758;DHT22;26462;47.384;19.218;2023-07-29T02:07:21;20.70;99.90
40758;DHT22;26462;47.384;19.218;2023-07-29T02:10:10;20.70;99.90
40758;DHT22;26462;47.384;19.218;2023-07-29T02:12:59;20.70;99.90
40758;DHT22;26462;47.384;19.218;2023-07-29T02:15:45;20.60;99.90
40758;DHT22;26462;47.384;19.218;2023-07-29T02:18:20;20.50;99.90
40758;DHT22;26462;47.384;19.218;2023-07-29T02:20:49;20.10;99.90
40758;DHT22;26462;47.384;19.218;2023-07-29T02:23:17;20.60;99.90
40758;DHT22;26462;47.384;19.218;2023-07-29T02:25:48;20.60;99.90
40758;DHT22;26462;47.384;19.218;2023-07-29T02:28:18;20.60;99.90
40758;DHT22;26462;47.384;19.218;2023-07-29T02:31:08;20.50;99.90
40758;DHT22;26462;47.384;19.218;2023-07-29T02:33:50;20.50;99.90
40758;DHT22;26462;47.384;19.218;2023-07-29T02:36:20;20.50;99.90
40758;DHT22;26462;47.384;19.218;2023-07-29T02:38:54;20.40;99.90
40758;DHT22;26462;47.384;19.218;2023-07-29T02:41:31;20.40;99.90
40758;DHT22;26462;47.384;19.218;2023-07-29T02:44:18;20.40;99.90
40758;DHT22;26462;47.384;19.218;2023-07-29T02:46:59;20.40;99.90
40758;DHT22;26462;47.384;19.218;2023-07-29T02:49:33;20.40;99.90
40758;DHT22;26462;47.384;19.218;2023-07-29T02:52:00;20.40;99.90
40758;DHT22;26462;47.384;19.218;2023-07-29T02:54:31;20.40;99.90
40758;DHT22;26462;47.384;19.218;2023-07-29T02:56:58;20.30;99.90
40758;DHT22;26462;47.384;19.218;2023-07-29T02:59:29;20.30;99.90
40758;DHT22;26462;47.384;19.218;2023-07-29T03:01:59;20.30;99.90
40758;DHT22;26462;47.384;19.218;2023-07-29T03:04:31;20.20;99.90
40758;DHT22;26462;47.384;19.218;2023-07-29T03:07:03;20.20;99.90
40758;DHT22;26462;47.384;19.218;2023-07-29T03:09:40;20.20;99.90
40758;DHT22;26462;47.384;19.218;2023-07-29T03:12:14;20.20;99.90
40758;DHT22;26462;47.384;19.218;2023-07-29T03:14:48;20.20;99.90
40758;DHT22;26462;47.384;19.218;2023-07-29T03:17:25;20.20;99.90
40758;DHT22;26462;47.384;19.218;2023-07-29T03:20:14;20.10;99.90
40758;DHT22;26462;47.384;19.218;2023-07-29T03:23:02;20.10;99.90
40758;DHT22;26462;47.384;19.218;2023-07-29T03:25:43;20.10;99.90
40758;DHT22;26462;47.384;19.218;2023-07-29T03:28:37;19.60;99.90
40758;DHT22;26462;47.384;19.218;2023-07-29T03:31:23;20.00;99.90
40758;DHT22;26462;47.384;19.218;2023-07-29T03:33:53;20.10;99.90
40758;DHT22;26462;47.384;19.218;2023-07-29T03:36:26;20.10;99.90
40758;DHT22;26462;47.384;19.218;2023-07-29T03:39:09;20.10;99.90
40758;DHT22;26462;47.384;19.218;2023-07-29T03:41:39;20.10;99.90
40758;DHT22;26462;47.384;19.218;2023-07-29T03:44:10;20.10;99.90
40758;DHT22;26462;47.384;19.218;2023-07-29T03:47:00;20.10;99.90
40758;DHT22;26462;47.384;19.218;2023-07-29T03:49:45;20.10;99.90
40758;DHT22;26462;47.384;19.218;2023-07-29T03:52:32;20.10;99.90
40758;DHT22;26462;47.384;19.218;2023-07-29T03:55:36;20.00;99.90
40758;DHT22;26462;47.384;19.218;2023-07-29T03:58:13;20.10;99.90
40758;DHT22;26462;47.384;19.218;2023-07-29T04:00:46;20.10;99.90
40758;DHT22;26462;47.384;19.218;2023-07-29T04:03:47;20.30;99.90
40758;DHT22;26462;47.384;19.218;2023-07-29T04:06:39;20.20;99.90
40758;DHT22;26462;47.384;19.218;2023-07-29T04:09:21;20.20;99.90
40758;DHT22;26462;47.384;19.218;2023-07-29T04:12:14;20.30;99.90
40758;DHT22;26462;47.384;19.218;2023-07-29T04:15:14;20.20;99.90
40758;DHT22;26462;47.384;19.218;2023-07-29T04:17:59;20.30;99.90
40758;DHT22;26462;47.384;19.218;2023-07-29T04:21:08;20.30;99.90
40758;DHT22;26462;47.384;19.218;2023-07-29T04:27:08;20.50;99.90
40758;DHT22;26462;47.384;19.218;2023-07-29T04:30:33;20.40;99.90
40758;DHT22;26462;47.384;19.218;2023-07-29T04:33:16;20.50;99.90
40758;DHT22;26462;47.384;19.218;2023-07-29T04:36:09;20.60;99.90
40758;DHT22;26462;47.384;19.218;2023-07-29T04:39:04;20.70;99.90
40758;DHT22;26462;47.384;19.218;2023-07-29T04:41:58;20.80;99.90
40758;DHT22;26462;47.384;19.218;2023-07-29T04:44:53;20.80;99.90
40758;DHT22;26462;47.384;19.218;2023-07-29T04:47:49;20.90;99.90
40758;DHT22;26462;47.384;19.218;2023-07-29T04:50:55;20.90;99.90
40758;DHT22;26462;47.384;19.218;2023-07-29T04:53:58;21.00;99.90
40758;DHT22;26462;47.384;19.218;2023-07-29T04:57:14;21.10;99.90
40758;DHT22;26462;47.384;19.218;2023-07-29T05:00:53;21.10;99.90
40758;DHT22;26462;47.384;19.218;2023-07-29T05:04:30;21.00;99.90
40758;DHT22;26462;47.384;19.218;2023-07-29T05:08:17;21.10;99.90
40758;DHT22;26462;47.384;19.218;2023-07-29T05:15:02;21.40;99.90
40758;DHT22;26462;47.384;19.218;2023-07-29T05:18:17;21.60;99.90
40758;DHT22;26462;47.384;19.218;2023-07-29T05:21:53;21.80;99.90
40758;DHT22;26462;47.384;19.218;2023-07-29T05:24:49;21.80;99.90
40758;DHT22;26462;47.384;19.218;2023-07-29T05:28:46;22.10;99.90
40758;DHT22;26462;47.384;19.218;2023-07-29T05:32:19;22.30;99.90
40758;DHT22;26462;47.384;19.218;2023-07-29T05:35:36;22.50;99.90
40758;DHT22;26462;47.384;19.218;2023-07-29T05:38:28;22.70;99.90
40758;DHT22;26462;47.384;19.218;2023-07-29T05:41:24;22.70;99.90
40758;DHT22;26462;47.384;19.218;2023-07-29T05:48:35;23.60;99.90
40758;DHT22;26462;47.384;19.218;2023-07-29T05:51:30;23.50;99.90
40758;DHT22;26462;47.384;19.218;2023-07-29T05:54:43;23.50;99.80
40758;DHT22;26462;47.384;19.218;2023-07-29T05:57:47;23.30;99.70
40758;DHT22;26462;47.384;19.218;2023-07-29T06:00:58;23.30;99.80
40758;DHT22;26462;47.384;19.218;2023-07-29T06:04:41;23.30;99.90
40758;DHT22;26462;47.384;19.218;2023-07-29T06:07:36;23.60;98.50
40758;DHT22;26462;47.384;19.218;2023-07-29T06:14:55;23.90;95.80
40758;DHT22;26462;47.384;19.218;2023-07-29T06:18:28;23.80;95.70
40758;DHT22;26462;47.384;19.218;2023-07-29T06:27:09;23.70;97.50
40758;DHT22;26462;47.384;19.218;2023-07-29T06:34:21;24.60;95.20
40758;DHT22;26462;47.384;19.218;2023-07-29T06:37:29;24.30;93.50
40758;DHT22;26462;47.384;19.218;2023-07-29T06:49:00;23.50;96.50
40758;DHT22;26462;47.384;19.218;2023-07-29T06:56:26;23.90;96.40
40758;DHT22;26462;47.384;19.218;2023-07-29T06:58:54;24.20;96.30
40758;DHT22;26462;47.384;19.218;2023-07-29T07:01:21;24.10;96.00
40758;DHT22;26462;47.384;19.218;2023-07-29T07:03:48;24.00;96.60
40758;DHT22;26462;47.384;19.218;2023-07-29T07:06:16;24.00;96.60
40758;DHT22;26462;47.384;19.218;2023-07-29T07:08:43;23.90;97.40
40758;DHT22;26462;47.384;19.218;2023-07-29T07:11:11;23.90;97.00
40758;DHT22;26462;47.384;19.218;2023-07-29T07:13:38;24.10;96.40
40758;DHT22;26462;47.384;19.218;2023-07-29T07:16:05;24.80;94.60
40758;DHT22;26462;47.384;19.218;2023-07-29T07:18:33;25.20;94.00
40758;DHT22;26462;47.384;19.218;2023-07-29T07:21:00;25.20;92.50
40758;DHT22;26462;47.384;19.218;2023-07-29T07:23:27;25.10;92.70
40758;DHT22;26462;47.384;19.218;2023-07-29T07:25:54;25.40;92.10
40758;DHT22;26462;47.384;19.218;2023-07-29T07:28:22;25.70;92.20
40758;DHT22;26462;47.384;19.218;2023-07-29T07:30:49;25.50;92.20
40758;DHT22;26462;47.384;19.218;2023-07-29T07:33:16;25.40;92.20
40758;DHT22;26462;47.384;19.218;2023-07-29T07:35:43;25.70;91.90
40758;DHT22;26462;47.384;19.218;2023-07-29T07:38:11;25.90;91.10
40758;DHT22;26462;47.384;19.218;2023-07-29T07:40:38;26.20;91.10
40758;DHT22;26462;47.384;19.218;2023-07-29T07:43:05;26.30;89.70
40758;DHT22;26462;47.384;19.218;2023-07-29T07:45:32;26.40;90.10
40758;DHT22;26462;47.384;19.218;2023-07-29T07:48:00;26.50;89.30
40758;DHT22;26462;47.384;19.218;2023-07-29T07:50:30;26.70;88.30
40758;DHT22;26462;47.384;19.218;2023-07-29T07:52:58;26.90;85.30
40758;DHT22;26462;47.384;19.218;2023-07-29T07:55:25;26.90;85.00
40758;DHT22;26462;47.384;19.218;2023-07-29T07:57:53;27.00;81.90
40758;DHT22;26462;47.384;19.218;2023-07-29T08:00:20;26.90;82.30
40758;DHT22;26462;47.384;19.218;2023-07-29T08:02:48;26.80;82.70
40758;DHT22;26462;47.384;19.218;2023-07-29T08:05:15;26.90;83.10
40758;DHT22;26462;47.384;19.218;2023-07-29T08:07:43;27.00;82.50
40758;DHT22;26462;47.384;19.218;2023-07-29T08:10:10;27.20;81.70
40758;DHT22;26462;47.384;19.218;2023-07-29T08:12:37;27.20;79.30
40758;DHT22;26462;47.384;19.218;2023-07-29T08:15:05;27.10;78.00
40758;DHT22;26462;47.384;19.218;2023-07-29T08:17:32;26.90;79.20
40758;DHT22;26462;47.384;19.218;2023-07-29T08:20:00;26.70;77.50
40758;DHT22;26462;47.384;19.218;2023-07-29T08:22:27;26.80;79.10
40758;DHT22;26462;47.384;19.218;2023-07-29T08:24:54;27.20;80.30
40758;DHT22;26462;47.384;19.218;2023-07-29T08:27:21;27.30;77.50
40758;DHT22;26462;47.384;19.218;2023-07-29T08:29:49;27.20;78.40
40758;DHT22;26462;47.384;19.218;2023-07-29T08:32:16;27.20;79.30
40758;DHT22;26462;47.384;19.218;2023-07-29T08:34:43;27.70;78.40
40758;DHT22;26462;47.384;19.218;2023-07-29T08:37:11;27.90;77.20
40758;DHT22;26462;47.384;19.218;2023-07-29T08:39:38;27.90;77.00
40758;DHT22;26462;47.384;19.218;2023-07-29T08:42:07;27.80;76.60
40758;DHT22;26462;47.384;19.218;2023-07-29T08:44:44;27.80;75.00
40758;DHT22;26462;47.384;19.218;2023-07-29T08:47:12;27.90;74.70
40758;DHT22;26462;47.384;19.218;2023-07-29T08:49:45;28.00;75.10
40758;DHT22;26462;47.384;19.218;2023-07-29T08:52:14;28.10;75.70
40758;DHT22;26462;47.384;19.218;2023-07-29T08:54:42;28.10;73.90
40758;DHT22;26462;47.384;19.218;2023-07-29T08:57:10;28.20;75.10
40758;DHT22;26462;47.384;19.218;2023-07-29T08:59:37;28.20;72.50
40758;DHT22;26462;47.384;19.218;2023-07-29T09:02:04;28.30;74.60
40758;DHT22;26462;47.384;19.218;2023-07-29T09:04:32;28.40;73.30
40758;DHT22;26462;47.384;19.218;2023-07-29T09:07:00;28.40;73.90
40758;DHT22;26462;47.384;19.218;2023-07-29T09:09:27;28.40;71.10
40758;DHT22;26462;47.384;19.218;2023-07-29T09:11:55;28.40;71.60
40758;DHT22;26462;47.384;19.218;2023-07-29T09:14:24;28.20;70.00
40758;DHT22;26462;47.384;19.218;2023-07-29T09:16:52;28.30;70.20
40758;DHT22;26462;47.384;19.218;2023-07-29T09:19:19;28.40;70.60
40758;DHT22;26462;47.384;19.218;2023-07-29T09:21:47;28.40;70.10
40758;DHT22;26462;47.384;19.218;2023-07-29T09:24:16;28.40;70.10
40758;DHT22;26462;47.384;19.218;2023-07-29T09:26:51;28.40;70.40
40758;DHT22;26462;47.384;19.218;2023-07-29T09:29:27;28.30;68.80
40758;DHT22;26462;47.384;19.218;2023-07-29T09:32:19;28.40;69.40
40758;DHT22;26462;47.384;19.218;2023-07-29T09:34:47;28.40;70.40
40758;DHT22;26462;47.384;19.218;2023-07-29T09:37:22;28.40;68.90
40758;DHT22;26462;47.384;19.218;2023-07-29T09:39:50;28.40;69.00
40758;DHT22;26462;47.384;19.218;2023-07-29T09:42:22;28.40;68.80
40758;DHT22;26462;47.384;19.218;2023-07-29T09:44:50;28.50;69.30
40758;DHT22;26462;47.384;19.218;2023-07-29T09:47:21;28.70;71.10
40758;DHT22;26462;47.384;19.218;2023-07-29T09:49:50;28.40;66.70
40758;DHT22;26462;47.384;19.218;2023-07-29T09:52:18;28.40;66.90
40758;DHT22;26462;47.384;19.218;2023-07-29T09:54:46;28.40;67.30
40758;DHT22;26462;47.384;19.218;2023-07-29T09:57:15;28.30;67.50
40758;DHT22;26462;47.384;19.218;2023-07-29T09:59:43;28.40;67.90
40758;DHT22;26462;47.384;19.218;2023-07-29T10:02:16;28.50;69.20
40758;DHT22;26462;47.384;19.218;2023-07-29T10:04:44;28.60;69.10
40758;DHT22;26462;47.384;19.218;2023-07-29T10:07:12;28.70;65.90
40758;DHT22;26462;47.384;19.218;2023-07-29T10:09:40;28.60;65.60
40758;DHT22;26462;47.384;19.218;2023-07-29T10:12:07;28.60;66.70
40758;DHT22;26462;47.384;19.218;2023-07-29T10:14:38;28.70;65.50
40758;DHT22;26462;47.384;19.218;2023-07-29T10:17:06;28.70;66.20
40758;DHT22;26462;47.384;19.218;2023-07-29T10:19:34;28.70;66.40
40758;DHT22;26462;47.384;19.218;2023-07-29T10:22:03;28.80;66.30
40758;DHT22;26462;47.384;19.218;2023-07-29T10:24:32;28.90;66.50
40758;DHT22;26462;47.384;19.218;2023-07-29T10:27:01;28.90;67.50
40758;DHT22;26462;47.384;19.218;2023-07-29T10:29:37;29.00;66.70
40758;DHT22;26462;47.384;19.218;2023-07-29T10:32:06;28.80;65.40
40758;DHT22;26462;47.384;19.218;2023-07-29T10:34:34;28.70;65.30
40758;DHT22;26462;47.384;19.218;2023-07-29T10:37:03;28.50;65.80
40758;DHT22;26462;47.384;19.218;2023-07-29T10:39:40;28.60;65.30
40758;DHT22;26462;47.384;19.218;2023-07-29T10:42:18;28.80;65.40
40758;DHT22;26462;47.384;19.218;2023-07-29T10:44:50;28.90;65.20
40758;DHT22;26462;47.384;19.218;2023-07-29T10:47:21;29.30;66.00
40758;DHT22;26462;47.384;19.218;2023-07-29T10:49:52;29.40;66.50
40758;DHT22;26462;47.384;19.218;2023-07-29T10:55:01;29.40;65.00
40758;DHT22;26462;47.384;19.218;2023-07-29T11:07:48;29.60;63.40
40758;DHT22;26462;47.384;19.218;2023-07-29T11:10:17;29.40;63.10
40758;DHT22;26462;47.384;19.218;2023-07-29T11:12:49;29.20;64.70
40758;DHT22;26462;47.384;19.218;2023-07-29T11:15:27;29.30;64.50
40758;DHT22;26462;47.384;19.218;2023-07-29T11:17:56;29.30;65.60
40758;DHT22;26462;47.384;19.218;2023-07-29T11:20:25;29.40;65.10
40758;DHT22;26462;47.384;19.218;2023-07-29T11:22:54;29.90;65.10
40758;DHT22;26462;47.384;19.218;2023-07-29T11:25:23;30.00;63.70
40758;DHT22;26462;47.384;19.218;2023-07-29T11:27:55;29.90;62.70
40758;DHT22;26462;47.384;19.218;2023-07-29T11:30:23;29.60;64.80
40758;DHT22;26462;47.384;19.218;2023-07-29T11:32:54;29.30;63.90
40758;DHT22;26462;47.384;19.218;2023-07-29T11:35:22;29.20;65.00
40758;DHT22;26462;47.384;19.218;2023-07-29T11:37:50;29.10;65.80
40758;DHT22;26462;47.384;19.218;2023-07-29T11:40:21;29.00;65.60
40758;DHT22;26462;47.384;19.218;2023-07-29T11:42:51;28.80;66.50
40758;DHT22;26462;47.384;19.218;2023-07-29T11:45:19;28.70;67.10
40758;DHT22;26462;47.384;19.218;2023-07-29T11:47:47;28.60;66.20
40758;DHT22;26462;47.384;19.218;2023-07-29T11:50:15;28.60;66.50
40758;DHT22;26462;47.384;19.218;2023-07-29T11:52:46;28.60;66.00
40758;DHT22;26462;47.384;19.218;2023-07-29T11:55:15;28.50;65.80
40758;DHT22;26462;47.384;19.218;2023-07-29T11:57:43;28.50;66.20
40758;DHT22;26462;47.384;19.218;2023-07-29T12:00:11;28.40;66.40
40758;DHT22;26462;47.384;19.218;2023-07-29T12:02:41;28.40;67.40
40758;DHT22;26462;47.384;19.218;2023-07-29T12:05:13;28.50;67.60
40758;DHT22;26462;47.384;19.218;2023-07-29T12:07:42;28.70;67.60
40758;DHT22;26462;47.384;19.218;2023-07-29T12:10:10;28.90;66.50
40758;DHT22;26462;47.384;19.218;2023-07-29T12:12:45;29.00;66.30
40758;DHT22;26462;47.384;19.218;2023-07-29T12:15:13;29.20;65.80
40758;DHT22;26462;47.384;19.218;2023-07-29T12:17:41;29.40;65.40
40758;DHT22;26462;47.384;19.218;2023-07-29T12:20:11;29.60;65.60
40758;DHT22;26462;47.384;19.218;2023-07-29T12:22:38;29.70;64.90
40758;DHT22;26462;47.384;19.218;2023-07-29T12:25:06;29.70;65.30
40758;DHT22;26462;47.384;19.218;2023-07-29T12:27:34;29.70;64.70
40758;DHT22;26462;47.384;19.218;2023-07-29T12:30:01;29.50;63.00
40758;DHT22;26462;47.384;19.218;2023-07-29T12:32:31;29.50;63.30
40758;DHT22;26462;47.384;19.218;2023-07-29T12:34:58;29.50;63.50
40758;DHT22;26462;47.384;19.218;2023-07-29T12:37:32;29.40;62.80
40758;DHT22;26462;47.384;19.218;2023-07-29T12:40:00;29.70;63.90
40758;DHT22;26462;47.384;19.218;2023-07-29T12:42:27;29.80;62.70
40758;DHT22;26462;47.384;19.218;2023-07-29T12:44:54;29.90;62.10
40758;DHT22;26462;47.384;19.218;2023-07-29T12:47:21;29.80;61.80
40758;DHT22;26462;47.384;19.218;2023-07-29T12:49:48;29.60;62.60
40758;DHT22;26462;47.384;19.218;2023-07-29T12:52:15;29.50;63.60
40758;DHT22;26462;47.384;19.218;2023-07-29T12:54:42;29.50;62.30
40758;DHT22;26462;47.384;19.218;2023-07-29T12:57:11;29.60;61.60
40758;DHT22;26462;47.384;19.218;2023-07-29T12:59:38;29.80;62.00
40758;DHT22;26462;47.384;19.218;2023-07-29T13:02:05;30.00;63.50
40758;DHT22;26462;47.384;19.218;2023-07-29T13:04:34;30.00;62.00
40758;DHT22;26462;47.384;19.218;2023-07-29T13:07:01;30.10;62.10
40758;DHT22;26462;47.384;19.218;2023-07-29T13:09:28;30.00;61.20
40758;DHT22;26462;47.384;19.218;2023-07-29T13:11:55;29.70;62.00
40758;DHT22;26462;47.384;19.218;2023-07-29T13:14:25;29.80;63.00
40758;DHT22;26462;47.384;19.218;2023-07-29T13:16:53;29.80;62.10
40758;DHT22;26462;47.384;19.218;2023-07-29T13:19:20;29.50;62.10
40758;DHT22;26462;47.384;19.218;2023-07-29T13:21:47;29.20;62.10
40758;DHT22;26462;47.384;19.218;2023-07-29T13:24:14;29.00;62.50
40758;DHT22;26462;47.384;19.218;2023-07-29T13:26:41;28.90;63.30
40758;DHT22;26462;47.384;19.218;2023-07-29T13:29:09;28.80;63.10
40758;DHT22;26462;47.384;19.218;2023-07-29T13:31:36;28.90;64.50
40758;DHT22;26462;47.384;19.218;2023-07-29T13:34:03;29.00;63.60
40758;DHT22;26462;47.384;19.218;2023-07-29T13:36:30;29.20;63.60
40758;DHT22;26462;47.384;19.218;2023-07-29T13:38:57;29.20;64.00
40758;DHT22;26462;47.384;19.218;2023-07-29T13:41:24;29.10;64.90
40758;DHT22;26462;47.384;19.218;2023-07-29T13:43:51;29.00;66.00
40758;DHT22;26462;47.384;19.218;2023-07-29T13:46:18;28.80;67.10
40758;DHT22;26462;47.384;19.218;2023-07-29T13:48:48;29.00;67.40
40758;DHT22;26462;47.384;19.218;2023-07-29T13:51:16;29.10;65.90
40758;DHT22;26462;47.384;19.218;2023-07-29T13:53:43;28.90;66.50
40758;DHT22;26462;47.384;19.218;2023-07-29T13:56:10;28.90;66.60
40758;DHT22;26462;47.384;19.218;2023-07-29T13:58:37;28.80;66.10
40758;DHT22;26462;47.384;19.218;2023-07-29T14:01:04;28.70;66.40
40758;DHT22;26462;47.384;19.218;2023-07-29T14:03:31;28.70;66.50
40758;DHT22;26462;47.384;19.218;2023-07-29T14:05:58;28.60;65.90
40758;DHT22;26462;47.384;19.218;2023-07-29T14:08:25;28.70;66.20
40758;DHT22;26462;47.384;19.218;2023-07-29T14:10:53;29.00;65.70
40758;DHT22;26462;47.384;19.218;2023-07-29T14:13:20;29.30;66.10
40758;DHT22;26462;47.384;19.218;2023-07-29T14:15:47;29.20;66.40
40758;DHT22;26462;47.384;19.218;2023-07-29T14:18:14;29.20;66.70
40758;DHT22;26462;47.384;19.218;2023-07-29T14:20:42;29.40;66.40
40758;DHT22;26462;47.384;19.218;2023-07-29T14:23:09;29.50;65.50
40758;DHT22;26462;47.384;19.218;2023-07-29T14:25:36;29.60;64.00
40758;DHT22;26462;47.384;19.218;2023-07-29T14:28:03;29.40;63.30
40758;DHT22;26462;47.384;19.218;2023-07-29T14:30:30;29.20;63.20
40758;DHT22;26462;47.384;19.218;2023-07-29T14:32:57;29.10;62.80
40758;DHT22;26462;47.384;19.218;2023-07-29T14:35:25;29.20;62.80
40758;DHT22;26462;47.384;19.218;2023-07-29T14:37:52;29.40;63.10
40758;DHT22;26462;47.384;19.218;2023-07-29T14:40:19;29.40;62.30
40758;DHT22;26462;47.384;19.218;2023-07-29T14:42:46;29.30;63.60
40758;DHT22;26462;47.384;19.218;2023-07-29T14:45:13;29.20;63.90
40758;DHT22;26462;47.384;19.218;2023-07-29T14:47:40;29.30;64.20
40758;DHT22;26462;47.384;19.218;2023-07-29T14:50:08;29.40;63.30
40758;DHT22;26462;47.384;19.218;2023-07-29T14:52:35;29.40;63.10
40758;DHT22;26462;47.384;19.218;2023-07-29T14:55:02;29.40;64.10
40758;DHT22;26462;47.384;19.218;2023-07-29T14:57:29;29.40;64.20
40758;DHT22;26462;47.384;19.218;2023-07-29T14:59:57;29.20;64.40
40758;DHT22;26462;47.384;19.218;2023-07-29T15:02:24;29.20;64.40
40758;DHT22;26462;47.384;19.218;2023-07-29T15:04:52;29.20;64.60
40758;DHT22;26462;47.384;19.218;2023-07-29T15:07:19;29.10;64.40
40758;DHT22;26462;47.384;19.218;2023-07-29T15:09:46;29.10;65.30
40758;DHT22;26462;47.384;19.218;2023-07-29T15:12:14;29.00;65.90
40758;DHT22;26462;47.384;19.218;2023-07-29T15:14:41;29.00;65.10
40758;DHT22;26462;47.384;19.218;2023-07-29T15:17:08;28.90;65.40
40758;DHT22;26462;47.384;19.218;2023-07-29T15:19:36;28.90;65.80
40758;DHT22;26462;47.384;19.218;2023-07-29T15:22:03;28.80;66.30
40758;DHT22;26462;47.384;19.218;2023-07-29T15:24:31;29.00;65.90
40758;DHT22;26462;47.384;19.218;2023-07-29T15:26:58;29.00;64.30
40758;DHT22;26462;47.384;19.218;2023-07-29T15:29:25;29.10;65.80
40758;DHT22;26462;47.384;19.218;2023-07-29T15:31:52;29.10;66.50
40758;DHT22;26462;47.384;19.218;2023-07-29T15:34:19;29.30;65.20
40758;DHT22;26462;47.384;19.218;2023-07-29T15:36:48;29.40;65.40
40758;DHT22;26462;47.384;19.218;2023-07-29T15:39:15;29.40;65.50
40758;DHT22;26462;47.384;19.218;2023-07-29T15:41:42;29.20;65.30
40758;DHT22;26462;47.384;19.218;2023-07-29T15:44:09;29.10;66.30
40758;DHT22;26462;47.384;19.218;2023-07-29T15:46:36;28.90;67.40
40758;DHT22;26462;47.384;19.218;2023-07-29T15:49:04;28.70;67.60
40758;DHT22;26462;47.384;19.218;2023-07-29T15:51:31;28.60;67.90
40758;DHT22;26462;47.384;19.218;2023-07-29T15:53:58;28.50;68.00
40758;DHT22;26462;47.384;19.218;2023-07-29T15:56:27;28.40;69.00
40758;DHT22;26462;47.384;19.218;2023-07-29T15:58:55;28.30;68.70
40758;DHT22;26462;47.384;19.218;2023-07-29T16:01:23;28.30;69.70
40758;DHT22;26462;47.384;19.218;2023-07-29T16:03:50;28.20;70.20
40758;DHT22;26462;47.384;19.218;2023-07-29T16:06:17;28.20;69.90
40758;DHT22;26462;47.384;19.218;2023-07-29T16:08:44;28.20;70.40
40758;DHT22;26462;47.384;19.218;2023-07-29T16:11:11;28.10;70.30
40758;DHT22;26462;47.384;19.218;2023-07-29T16:13:39;28.10;70.40
40758;DHT22;26462;47.384;19.218;2023-07-29T16:16:06;28.10;70.50
40758;DHT22;26462;47.384;19.218;2023-07-29T16:18:33;28.00;70.30
40758;DHT22;26462;47.384;19.218;2023-07-29T16:21:00;28.00;70.60
40758;DHT22;26462;47.384;19.218;2023-07-29T16:23:31;28.00;70.70
40758;DHT22;26462;47.384;19.218;2023-07-29T16:25:59;28.00;71.00
40758;DHT22;26462;47.384;19.218;2023-07-29T16:28:26;28.00;71.10
40758;DHT22;26462;47.384;19.218;2023-07-29T16:30:53;27.90;71.10
40758;DHT22;26462;47.384;19.218;2023-07-29T16:33:21;27.90;71.30
40758;DHT22;26462;47.384;19.218;2023-07-29T16:35:48;27.80;71.60
40758;DHT22;26462;47.384;19.218;2023-07-29T16:38:15;27.90;71.80
40758;DHT22;26462;47.384;19.218;2023-07-29T16:40:42;27.80;71.70
40758;DHT22;26462;47.384;19.218;2023-07-29T16:43:30;27.80;72.10
40758;DHT22;26462;47.384;19.218;2023-07-29T16:45:57;27.70;72.30
40758;DHT22;26462;47.384;19.218;2023-07-29T16:48:24;27.70;72.40
40758;DHT22;26462;47.384;19.218;2023-07-29T16:50:51;27.70;72.70
40758;DHT22;26462;47.384;19.218;2023-07-29T16:53:18;27.70;73.00
40758;DHT22;26462;47.384;19.218;2023-07-29T16:55:45;27.60;73.50